sensor_id;sensor_type;location;lat;lon;timestamp;P1;durP1;ratioP1;P2;durP2;ratioP2
13927;SDS011;7036;50.834;4.718;2023-04-25T00:00:26;3.75;;;1.88;;
13927;SDS011;7036;50.834;4.718;2023-04-25T00:02:54;3.20;;;2.05;;
13927;SDS011;7036;50.834;4.718;2023-04-25T00:05:22;3.67;;;2.38;;
13927;SDS011;7036;50.834;4.718;2023-04-25T00:07:50;3.95;;;2.50;;
13927;SDS011;7036;50.834;4.718;2023-04-25T00:10:18;2.95;;;1.60;;
13927;SDS011;7036;50.834;4.718;2023-04-25T00:12:46;2.72;;;2.17;;
13927;SDS011;7036;50.834;4.718;2023-04-25T00:15:14;3.38;;;2.13;;
13927;SDS011;7036;50.834;4.718;2023-04-25T00:17:40;2.80;;;1.97;;
13927;SDS011;7036;50.834;4.718;2023-04-25T00:20:09;5.03;;;2.10;;
13927;SDS011;7036;50.834;4.718;2023-04-25T00:22:35;2.53;;;2.00;;
13927;SDS011;7036;50.834;4.718;2023-04-25T00:25:06;4.47;;;1.75;;
13927;SDS011;7036;50.834;4.718;2023-04-25T00:27:34;3.40;;;2.10;;
13927;SDS011;7036;50.834;4.718;2023-04-25T00:30:00;3.77;;;2.20;;
13927;SDS011;7036;50.834;4.718;2023-04-25T00:32:28;3.75;;;2.15;;
13927;SDS011;7036;50.834;4.718;2023-04-25T00:34:57;5.45;;;2.33;;
13927;SDS011;7036;50.834;4.718;2023-04-25T00:37:23;4.40;;;1.70;;
13927;SDS011;7036;50.834;4.718;2023-04-25T00:39:51;2.65;;;2.10;;
13927;SDS011;7036;50.834;4.718;2023-04-25T00:42:19;3.45;;;1.83;;
13927;SDS011;7036;50.834;4.718;2023-04-25T00:44:47;4.40;;;2.28;;
13927;SDS011;7036;50.834;4.718;2023-04-25T00:47:15;3.58;;;2.17;;
13927;SDS011;7036;50.834;4.718;2023-04-25T00:49:43;4.43;;;1.90;;
13927;SDS011;7036;50.834;4.718;2023-04-25T00:52:11;2.90;;;2.00;;
13927;SDS011;7036;50.834;4.718;2023-04-25T00:54:39;2.58;;;2.35;;
13927;SDS011;7036;50.834;4.718;2023-04-25T00:57:07;3.88;;;1.90;;
13927;SDS011;7036;50.834;4.718;2023-04-25T00:59:35;3.08;;;2.40;;
13927;SDS011;7036;50.834;4.718;2023-04-25T01:02:03;2.22;;;2.03;;
13927;SDS011;7036;50.834;4.718;2023-04-25T01:04:30;4.75;;;2.40;;
13927;SDS011;7036;50.834;4.718;2023-04-25T01:06:58;4.30;;;2.30;;
13927;SDS011;7036;50.834;4.718;2023-04-25T01:09:26;4.07;;;2.10;;
13927;SDS011;7036;50.834;4.718;2023-04-25T01:11:54;2.90;;;2.53;;
13927;SDS011;7036;50.834;4.718;2023-04-25T01:14:21;3.85;;;2.35;;
13927;SDS011;7036;50.834;4.718;2023-04-25T01:16:49;4.10;;;2.53;;
13927;SDS011;7036;50.834;4.718;2023-04-25T01:19:17;5.38;;;2.40;;
13927;SDS011;7036;50.834;4.718;2023-04-25T01:21:45;3.15;;;2.00;;
13927;SDS011;7036;50.834;4.718;2023-04-25T01:24:13;4.70;;;2.33;;
13927;SDS011;7036;50.834;4.718;2023-04-25T01:26:41;4.55;;;2.55;;
13927;SDS011;7036;50.834;4.718;2023-04-25T01:29:09;3.35;;;2.13;;
13927;SDS011;7036;50.834;4.718;2023-04-25T01:31:37;2.85;;;2.20;;
13927;SDS011;7036;50.834;4.718;2023-04-25T01:34:05;4.35;;;2.30;;
13927;SDS011;7036;50.834;4.718;2023-04-25T01:36:33;2.83;;;2.17;;
13927;SDS011;7036;50.834;4.718;2023-04-25T01:39:00;2.33;;;2.05;;
13927;SDS011;7036;50.834;4.718;2023-04-25T01:41:28;3.28;;;2.42;;
13927;SDS011;7036;50.834;4.718;2023-04-25T01:43:56;3.67;;;2.38;;
13927;SDS011;7036;50.834;4.718;2023-04-25T01:46:25;3.58;;;2.05;;
13927;SDS011;7036;50.834;4.718;2023-04-25T01:48:51;3.27;;;2.37;;
13927;SDS011;7036;50.834;4.718;2023-04-25T01:51:19;4.38;;;2.03;;
13927;SDS011;7036;50.834;4.718;2023-04-25T01:53:47;3.88;;;2.30;;
13927;SDS011;7036;50.834;4.718;2023-04-25T01:56:15;3.08;;;2.08;;
13927;SDS011;7036;50.834;4.718;2023-04-25T01:58:43;3.70;;;2.65;;
13927;SDS011;7036;50.834;4.718;2023-04-25T02:01:10;3.05;;;2.38;;
13927;SDS011;7036;50.834;4.718;2023-04-25T02:03:38;4.13;;;2.40;;
13927;SDS011;7036;50.834;4.718;2023-04-25T02:06:06;2.92;;;2.20;;
13927;SDS011;7036;50.834;4.718;2023-04-25T02:08:34;4.97;;;2.47;;
13927;SDS011;7036;50.834;4.718;2023-04-25T02:11:02;4.10;;;2.40;;
13927;SDS011;7036;50.834;4.718;2023-04-25T02:13:30;3.42;;;2.10;;
13927;SDS011;7036;50.834;4.718;2023-04-25T02:15:57;4.03;;;2.30;;
13927;SDS011;7036;50.834;4.718;2023-04-25T02:18:25;5.35;;;2.50;;
13927;SDS011;7036;50.834;4.718;2023-04-25T02:20:54;5.05;;;2.83;;
13927;SDS011;7036;50.834;4.718;2023-04-25T02:23:20;5.37;;;2.33;;
13927;SDS011;7036;50.834;4.718;2023-04-25T02:25:48;3.05;;;2.22;;
13927;SDS011;7036;50.834;4.718;2023-04-25T02:28:16;4.32;;;2.58;;
13927;SDS011;7036;50.834;4.718;2023-04-25T02:30:44;3.67;;;2.22;;
13927;SDS011;7036;50.834;4.718;2023-04-25T02:33:12;4.20;;;2.20;;
13927;SDS011;7036;50.834;4.718;2023-04-25T02:35:39;2.83;;;2.00;;
13927;SDS011;7036;50.834;4.718;2023-04-25T02:38:07;4.28;;;2.42;;
13927;SDS011;7036;50.834;4.718;2023-04-25T02:40:35;5.30;;;2.40;;
13927;SDS011;7036;50.834;4.718;2023-04-25T02:43:03;4.18;;;2.35;;
13927;SDS011;7036;50.834;4.718;2023-04-25T02:45:31;3.95;;;2.50;;
13927;SDS011;7036;50.834;4.718;2023-04-25T02:47:59;4.28;;;2.58;;
13927;SDS011;7036;50.834;4.718;2023-04-25T02:50:27;4.57;;;2.28;;
13927;SDS011;7036;50.834;4.718;2023-04-25T02:52:55;3.35;;;2.78;;
13927;SDS011;7036;50.834;4.718;2023-04-25T02:55:24;3.08;;;2.30;;
13927;SDS011;7036;50.834;4.718;2023-04-25T02:57:50;4.27;;;2.57;;
13927;SDS011;7036;50.834;4.718;2023-04-25T03:00:18;5.10;;;2.20;;
13927;SDS011;7036;50.834;4.718;2023-04-25T03:02:46;3.72;;;2.30;;
13927;SDS011;7036;50.834;4.718;2023-04-25T03:05:14;4.85;;;2.30;;
13927;SDS011;7036;50.834;4.718;2023-04-25T03:07:42;5.75;;;2.45;;
13927;SDS011;7036;50.834;4.718;2023-04-25T03:10:10;3.13;;;2.03;;
13927;SDS011;7036;50.834;4.718;2023-04-25T03:12:38;4.85;;;2.30;;
13927;SDS011;7036;50.834;4.718;2023-04-25T03:15:06;3.90;;;2.28;;
13927;SDS011;7036;50.834;4.718;2023-04-25T03:17:33;5.50;;;2.33;;
13927;SDS011;7036;50.834;4.718;2023-04-25T03:20:01;2.27;;;2.00;;
13927;SDS011;7036;50.834;4.718;2023-04-25T03:22:29;3.57;;;2.37;;
13927;SDS011;7036;50.834;4.718;2023-04-25T03:24:55;4.23;;;2.07;;
13927;SDS011;7036;50.834;4.718;2023-04-25T03:27:23;5.78;;;2.75;;
13927;SDS011;7036;50.834;4.718;2023-04-25T03:29:51;4.55;;;2.40;;
13927;SDS011;7036;50.834;4.718;2023-04-25T03:32:19;3.47;;;2.38;;
13927;SDS011;7036;50.834;4.718;2023-04-25T03:34:46;3.05;;;2.13;;
13927;SDS011;7036;50.834;4.718;2023-04-25T03:37:14;4.97;;;2.50;;
13927;SDS011;7036;50.834;4.718;2023-04-25T03:39:42;4.00;;;2.50;;
13927;SDS011;7036;50.834;4.718;2023-04-25T03:42:08;3.23;;;2.37;;
13927;SDS011;7036;50.834;4.718;2023-04-25T03:44:37;3.90;;;2.70;;
13927;SDS011;7036;50.834;4.718;2023-04-25T03:47:04;6.27;;;2.63;;
13927;SDS011;7036;50.834;4.718;2023-04-25T03:49:32;3.60;;;2.33;;
13927;SDS011;7036;50.834;4.718;2023-04-25T03:51:59;3.83;;;2.20;;
13927;SDS011;7036;50.834;4.718;2023-04-25T03:54:26;4.72;;;2.50;;
13927;SDS011;7036;50.834;4.718;2023-04-25T03:56:54;5.30;;;2.22;;
13927;SDS011;7036;50.834;4.718;2023-04-25T03:59:22;3.60;;;2.25;;
13927;SDS011;7036;50.834;4.718;2023-04-25T04:01:50;7.38;;;2.80;;
13927;SDS011;7036;50.834;4.718;2023-04-25T04:04:17;4.43;;;2.05;;
13927;SDS011;7036;50.834;4.718;2023-04-25T04:06:44;4.65;;;2.50;;
13927;SDS011;7036;50.834;4.718;2023-04-25T04:09:11;3.75;;;2.20;;
13927;SDS011;7036;50.834;4.718;2023-04-25T04:11:39;4.22;;;2.03;;
13927;SDS011;7036;50.834;4.718;2023-04-25T04:14:07;4.43;;;2.65;;
13927;SDS011;7036;50.834;4.718;2023-04-25T04:16:35;2.80;;;2.15;;
13927;SDS011;7036;50.834;4.718;2023-04-25T04:19:02;4.80;;;2.70;;
13927;SDS011;7036;50.834;4.718;2023-04-25T04:21:30;5.15;;;2.25;;
13927;SDS011;7036;50.834;4.718;2023-04-25T04:23:58;3.72;;;2.15;;
13927;SDS011;7036;50.834;4.718;2023-04-25T04:26:26;2.10;;;1.90;;
13927;SDS011;7036;50.834;4.718;2023-04-25T04:28:54;5.18;;;2.38;;
13927;SDS011;7036;50.834;4.718;2023-04-25T04:31:22;3.13;;;2.28;;
13927;SDS011;7036;50.834;4.718;2023-04-25T04:33:49;4.60;;;2.67;;
13927;SDS011;7036;50.834;4.718;2023-04-25T04:36:16;3.63;;;2.13;;
13927;SDS011;7036;50.834;4.718;2023-04-25T04:38:45;4.28;;;2.58;;
13927;SDS011;7036;50.834;4.718;2023-04-25T04:41:13;6.87;;;2.50;;
13927;SDS011;7036;50.834;4.718;2023-04-25T04:43:39;4.30;;;2.20;;
13927;SDS011;7036;50.834;4.718;2023-04-25T04:46:07;2.42;;;2.13;;
13927;SDS011;7036;50.834;4.718;2023-04-25T04:48:34;5.75;;;2.85;;
13927;SDS011;7036;50.834;4.718;2023-04-25T04:51:02;3.40;;;2.15;;
13927;SDS011;7036;50.834;4.718;2023-04-25T04:53:29;5.20;;;2.40;;
13927;SDS011;7036;50.834;4.718;2023-04-25T04:55:57;3.97;;;1.92;;
13927;SDS011;7036;50.834;4.718;2023-04-25T04:58:25;4.85;;;2.33;;
13927;SDS011;7036;50.834;4.718;2023-04-25T05:00:53;2.97;;;2.10;;
13927;SDS011;7036;50.834;4.718;2023-04-25T05:03:20;2.90;;;2.10;;
13927;SDS011;7036;50.834;4.718;2023-04-25T05:05:48;3.88;;;2.05;;
13927;SDS011;7036;50.834;4.718;2023-04-25T05:08:16;6.57;;;2.25;;
13927;SDS011;7036;50.834;4.718;2023-04-25T05:10:44;3.50;;;2.65;;
13927;SDS011;7036;50.834;4.718;2023-04-25T05:13:12;3.47;;;2.35;;
13927;SDS011;7036;50.834;4.718;2023-04-25T05:15:40;3.55;;;2.40;;
13927;SDS011;7036;50.834;4.718;2023-04-25T05:18:07;3.97;;;2.30;;
13927;SDS011;7036;50.834;4.718;2023-04-25T05:20:34;3.13;;;1.83;;
13927;SDS011;7036;50.834;4.718;2023-04-25T05:23:03;2.00;;;1.80;;
13927;SDS011;7036;50.834;4.718;2023-04-25T05:25:30;4.30;;;2.40;;
13927;SDS011;7036;50.834;4.718;2023-04-25T05:27:58;3.20;;;2.15;;
13927;SDS011;7036;50.834;4.718;2023-04-25T05:30:28;4.70;;;2.13;;
13927;SDS011;7036;50.834;4.718;2023-04-25T05:32:55;5.40;;;2.40;;
13927;SDS011;7036;50.834;4.718;2023-04-25T05:35:22;3.00;;;2.10;;
13927;SDS011;7036;50.834;4.718;2023-04-25T05:37:50;2.75;;;2.00;;
13927;SDS011;7036;50.834;4.718;2023-04-25T05:40:18;3.53;;;2.20;;
13927;SDS011;7036;50.834;4.718;2023-04-25T05:42:46;3.38;;;1.90;;
13927;SDS011;7036;50.834;4.718;2023-04-25T05:45:13;6.53;;;2.22;;
13927;SDS011;7036;50.834;4.718;2023-04-25T05:47:40;5.00;;;2.15;;
13927;SDS011;7036;50.834;4.718;2023-04-25T05:50:08;4.10;;;2.08;;
13927;SDS011;7036;50.834;4.718;2023-04-25T05:52:35;3.35;;;2.17;;
13927;SDS011;7036;50.834;4.718;2023-04-25T05:55:03;3.35;;;2.05;;
13927;SDS011;7036;50.834;4.718;2023-04-25T05:57:31;4.43;;;2.20;;
13927;SDS011;7036;50.834;4.718;2023-04-25T05:59:59;2.53;;;2.05;;
13927;SDS011;7036;50.834;4.718;2023-04-25T06:02:27;3.30;;;1.98;;
13927;SDS011;7036;50.834;4.718;2023-04-25T06:04:54;2.70;;;1.98;;
13927;SDS011;7036;50.834;4.718;2023-04-25T06:07:22;3.13;;;2.47;;
13927;SDS011;7036;50.834;4.718;2023-04-25T06:09:48;2.93;;;2.20;;
13927;SDS011;7036;50.834;4.718;2023-04-25T06:12:16;4.30;;;2.33;;
13927;SDS011;7036;50.834;4.718;2023-04-25T06:14:43;4.18;;;2.28;;
13927;SDS011;7036;50.834;4.718;2023-04-25T06:17:11;3.42;;;2.03;;
13927;SDS011;7036;50.834;4.718;2023-04-25T06:19:39;4.03;;;2.55;;
13927;SDS011;7036;50.834;4.718;2023-04-25T06:22:07;2.72;;;2.08;;
13927;SDS011;7036;50.834;4.718;2023-04-25T06:24:34;3.50;;;2.20;;
13927;SDS011;7036;50.834;4.718;2023-04-25T06:27:02;2.65;;;2.00;;
13927;SDS011;7036;50.834;4.718;2023-04-25T06:29:28;3.63;;;2.40;;
13927;SDS011;7036;50.834;4.718;2023-04-25T06:31:56;3.33;;;1.98;;
13927;SDS011;7036;50.834;4.718;2023-04-25T06:34:24;6.22;;;2.25;;
13927;SDS011;7036;50.834;4.718;2023-04-25T06:36:52;3.63;;;2.08;;
13927;SDS011;7036;50.834;4.718;2023-04-25T06:39:20;2.63;;;1.92;;
13927;SDS011;7036;50.834;4.718;2023-04-25T06:41:48;3.40;;;1.95;;
13927;SDS011;7036;50.834;4.718;2023-04-25T06:44:17;4.03;;;2.42;;
13927;SDS011;7036;50.834;4.718;2023-04-25T06:46:44;3.87;;;2.03;;
13927;SDS011;7036;50.834;4.718;2023-04-25T06:49:12;4.85;;;2.00;;
13927;SDS011;7036;50.834;4.718;2023-04-25T06:51:39;4.37;;;2.00;;
13927;SDS011;7036;50.834;4.718;2023-04-25T06:54:07;2.88;;;2.20;;
13927;SDS011;7036;50.834;4.718;2023-04-25T06:56:36;6.20;;;2.67;;
13927;SDS011;7036;50.834;4.718;2023-04-25T06:59:02;3.00;;;2.30;;
13927;SDS011;7036;50.834;4.718;2023-04-25T07:01:30;2.92;;;2.20;;
13927;SDS011;7036;50.834;4.718;2023-04-25T07:03:58;3.35;;;2.13;;
13927;SDS011;7036;50.834;4.718;2023-04-25T07:06:26;3.08;;;1.70;;
13927;SDS011;7036;50.834;4.718;2023-04-25T07:08:54;4.25;;;2.42;;
13927;SDS011;7036;50.834;4.718;2023-04-25T07:11:22;2.28;;;1.67;;
13927;SDS011;7036;50.834;4.718;2023-04-25T07:13:50;4.28;;;2.10;;
13927;SDS011;7036;50.834;4.718;2023-04-25T07:16:18;9.43;;;2.30;;
13927;SDS011;7036;50.834;4.718;2023-04-25T07:18:46;6.35;;;2.30;;
13927;SDS011;7036;50.834;4.718;2023-04-25T07:21:14;9.95;;;3.40;;
13927;SDS011;7036;50.834;4.718;2023-04-25T07:23:42;5.78;;;2.05;;
13927;SDS011;7036;50.834;4.718;2023-04-25T07:26:10;8.93;;;2.72;;
13927;SDS011;7036;50.834;4.718;2023-04-25T07:28:37;6.55;;;2.55;;
13927;SDS011;7036;50.834;4.718;2023-04-25T07:31:04;7.72;;;2.90;;
13927;SDS011;7036;50.834;4.718;2023-04-25T07:33:31;7.45;;;2.95;;
13927;SDS011;7036;50.834;4.718;2023-04-25T07:35:59;5.57;;;2.33;;
13927;SDS011;7036;50.834;4.718;2023-04-25T07:38:27;9.32;;;2.97;;
13927;SDS011;7036;50.834;4.718;2023-04-25T07:40:55;5.75;;;2.47;;
13927;SDS011;7036;50.834;4.718;2023-04-25T07:43:23;9.10;;;2.88;;
13927;SDS011;7036;50.834;4.718;2023-04-25T07:45:51;9.57;;;3.40;;
13927;SDS011;7036;50.834;4.718;2023-04-25T07:48:18;4.32;;;3.03;;
13927;SDS011;7036;50.834;4.718;2023-04-25T07:50:45;8.57;;;3.13;;
13927;SDS011;7036;50.834;4.718;2023-04-25T07:53:12;8.07;;;2.75;;
13927;SDS011;7036;50.834;4.718;2023-04-25T07:55:40;8.45;;;3.15;;
13927;SDS011;7036;50.834;4.718;2023-04-25T07:58:08;9.65;;;2.88;;
13927;SDS011;7036;50.834;4.718;2023-04-25T08:00:36;5.45;;;2.80;;
13927;SDS011;7036;50.834;4.718;2023-04-25T08:03:03;10.85;;;3.25;;
13927;SDS011;7036;50.834;4.718;2023-04-25T08:05:31;7.25;;;3.33;;
13927;SDS011;7036;50.834;4.718;2023-04-25T08:07:59;9.75;;;3.45;;
13927;SDS011;7036;50.834;4.718;2023-04-25T08:10:26;8.13;;;3.67;;
13927;SDS011;7036;50.834;4.718;2023-04-25T08:12:53;11.93;;;3.45;;
13927;SDS011;7036;50.834;4.718;2023-04-25T08:15:21;6.55;;;3.97;;
13927;SDS011;7036;50.834;4.718;2023-04-25T08:17:49;12.15;;;3.25;;
13927;SDS011;7036;50.834;4.718;2023-04-25T08:20:16;9.23;;;3.50;;
13927;SDS011;7036;50.834;4.718;2023-04-25T08:22:44;12.20;;;4.13;;
13927;SDS011;7036;50.834;4.718;2023-04-25T08:25:11;13.77;;;3.78;;
13927;SDS011;7036;50.834;4.718;2023-04-25T08:27:39;8.18;;;4.07;;
13927;SDS011;7036;50.834;4.718;2023-04-25T08:30:08;8.48;;;4.32;;
13927;SDS011;7036;50.834;4.718;2023-04-25T08:32:34;5.97;;;3.73;;
13927;SDS011;7036;50.834;4.718;2023-04-25T08:35:02;10.55;;;3.45;;
13927;SDS011;7036;50.834;4.718;2023-04-25T08:37:29;5.22;;;3.60;;
13927;SDS011;7036;50.834;4.718;2023-04-25T08:39:57;7.03;;;3.55;;
13927;SDS011;7036;50.834;4.718;2023-04-25T08:42:24;8.35;;;4.13;;
13927;SDS011;7036;50.834;4.718;2023-04-25T08:44:53;5.55;;;3.50;;
13927;SDS011;7036;50.834;4.718;2023-04-25T08:47:21;9.38;;;4.05;;
13927;SDS011;7036;50.834;4.718;2023-04-25T08:49:48;9.85;;;3.70;;
13927;SDS011;7036;50.834;4.718;2023-04-25T08:52:15;8.38;;;3.92;;
13927;SDS011;7036;50.834;4.718;2023-04-25T08:54:43;7.57;;;4.00;;
13927;SDS011;7036;50.834;4.718;2023-04-25T08:57:11;11.23;;;4.07;;
13927;SDS011;7036;50.834;4.718;2023-04-25T08:59:39;8.27;;;3.50;;
13927;SDS011;7036;50.834;4.718;2023-04-25T09:02:07;8.65;;;3.90;;
13927;SDS011;7036;50.834;4.718;2023-04-25T09:04:35;10.43;;;3.50;;
13927;SDS011;7036;50.834;4.718;2023-04-25T09:07:03;8.63;;;3.58;;
13927;SDS011;7036;50.834;4.718;2023-04-25T09:09:30;7.35;;;3.25;;
13927;SDS011;7036;50.834;4.718;2023-04-25T09:11:58;8.95;;;3.58;;
13927;SDS011;7036;50.834;4.718;2023-04-25T09:14:26;6.47;;;3.38;;
13927;SDS011;7036;50.834;4.718;2023-04-25T09:19:24;8.60;;;3.20;;
13927;SDS011;7036;50.834;4.718;2023-04-25T09:21:56;6.00;;;3.25;;
13927;SDS011;7036;50.834;4.718;2023-04-25T09:26:57;6.90;;;3.10;;
13927;SDS011;7036;50.834;4.718;2023-04-25T09:29:29;7.53;;;3.58;;
13927;SDS011;7036;50.834;4.718;2023-04-25T09:32:41;4.23;;;3.23;;
13927;SDS011;7036;50.834;4.718;2023-04-25T09:34:40;7.93;;;3.20;;
13927;SDS011;7036;50.834;4.718;2023-04-25T09:37:11;6.80;;;3.25;;
13927;SDS011;7036;50.834;4.718;2023-04-25T09:39:39;6.63;;;2.80;;
13927;SDS011;7036;50.834;4.718;2023-04-25T09:42:05;7.10;;;3.30;;
13927;SDS011;7036;50.834;4.718;2023-04-25T09:44:33;7.28;;;3.42;;
13927;SDS011;7036;50.834;4.718;2023-04-25T09:47:01;6.43;;;3.30;;
13927;SDS011;7036;50.834;4.718;2023-04-25T09:49:29;8.43;;;3.08;;
13927;SDS011;7036;50.834;4.718;2023-04-25T09:51:59;8.32;;;2.97;;
13927;SDS011;7036;50.834;4.718;2023-04-25T09:54:25;7.07;;;3.53;;
13927;SDS011;7036;50.834;4.718;2023-04-25T09:56:53;6.88;;;2.95;;
13927;SDS011;7036;50.834;4.718;2023-04-25T09:59:21;8.00;;;3.53;;
13927;SDS011;7036;50.834;4.718;2023-04-25T10:01:50;9.00;;;3.30;;
13927;SDS011;7036;50.834;4.718;2023-04-25T10:04:24;8.25;;;3.53;;
13927;SDS011;7036;50.834;4.718;2023-04-25T10:06:50;10.93;;;3.30;;
13927;SDS011;7036;50.834;4.718;2023-04-25T10:09:19;10.43;;;4.18;;
13927;SDS011;7036;50.834;4.718;2023-04-25T10:11:45;15.23;;;3.95;;
13927;SDS011;7036;50.834;4.718;2023-04-25T10:14:12;10.68;;;3.72;;
13927;SDS011;7036;50.834;4.718;2023-04-25T10:16:40;7.50;;;3.38;;
13927;SDS011;7036;50.834;4.718;2023-04-25T10:19:08;8.93;;;3.30;;
13927;SDS011;7036;50.834;4.718;2023-04-25T10:21:36;4.85;;;3.28;;
13927;SDS011;7036;50.834;4.718;2023-04-25T10:24:03;5.75;;;3.40;;
13927;SDS011;7036;50.834;4.718;2023-04-25T10:26:31;5.05;;;2.50;;
13927;SDS011;7036;50.834;4.718;2023-04-25T10:29:00;6.75;;;2.50;;
13927;SDS011;7036;50.834;4.718;2023-04-25T10:31:28;5.30;;;2.60;;
13927;SDS011;7036;50.834;4.718;2023-04-25T10:33:55;6.32;;;2.40;;
13927;SDS011;7036;50.834;4.718;2023-04-25T10:36:23;8.70;;;2.90;;
13927;SDS011;7036;50.834;4.718;2023-04-25T10:38:50;6.60;;;2.78;;
13927;SDS011;7036;50.834;4.718;2023-04-25T10:41:18;5.28;;;2.70;;
13927;SDS011;7036;50.834;4.718;2023-04-25T10:43:45;5.90;;;2.53;;
13927;SDS011;7036;50.834;4.718;2023-04-25T10:46:13;6.22;;;2.75;;
13927;SDS011;7036;50.834;4.718;2023-04-25T10:48:50;4.45;;;2.33;;
13927;SDS011;7036;50.834;4.718;2023-04-25T10:51:20;8.63;;;2.90;;
13927;SDS011;7036;50.834;4.718;2023-04-25T10:53:44;7.00;;;2.60;;
13927;SDS011;7036;50.834;4.718;2023-04-25T10:56:16;3.72;;;2.45;;
13927;SDS011;7036;50.834;4.718;2023-04-25T10:58:42;5.85;;;2.80;;
13927;SDS011;7036;50.834;4.718;2023-04-25T11:01:08;3.90;;;2.57;;
13927;SDS011;7036;50.834;4.718;2023-04-25T11:03:43;6.88;;;2.75;;
13927;SDS011;7036;50.834;4.718;2023-04-25T11:06:14;4.93;;;2.37;;
13927;SDS011;7036;50.834;4.718;2023-04-25T11:08:43;4.80;;;2.58;;
13927;SDS011;7036;50.834;4.718;2023-04-25T11:11:05;4.47;;;2.83;;
13927;SDS011;7036;50.834;4.718;2023-04-25T11:13:32;5.40;;;2.70;;
13927;SDS011;7036;50.834;4.718;2023-04-25T11:16:00;3.13;;;1.98;;
13927;SDS011;7036;50.834;4.718;2023-04-25T11:18:28;3.63;;;1.90;;
13927;SDS011;7036;50.834;4.718;2023-04-25T11:20:56;5.63;;;2.10;;
13927;SDS011;7036;50.834;4.718;2023-04-25T11:23:24;3.85;;;2.10;;
13927;SDS011;7036;50.834;4.718;2023-04-25T11:25:52;3.78;;;2.13;;
13927;SDS011;7036;50.834;4.718;2023-04-25T11:28:21;4.43;;;2.30;;
13927;SDS011;7036;50.834;4.718;2023-04-25T11:30:48;5.43;;;2.15;;
13927;SDS011;7036;50.834;4.718;2023-04-25T11:33:15;5.32;;;2.08;;
13927;SDS011;7036;50.834;4.718;2023-04-25T11:35:43;3.83;;;2.78;;
13927;SDS011;7036;50.834;4.718;2023-04-25T11:38:10;7.80;;;3.67;;
13927;SDS011;7036;50.834;4.718;2023-04-25T11:40:37;9.02;;;3.58;;
13927;SDS011;7036;50.834;4.718;2023-04-25T11:43:06;5.40;;;3.08;;
13927;SDS011;7036;50.834;4.718;2023-04-25T11:45:32;5.07;;;3.60;;
13927;SDS011;7036;50.834;4.718;2023-04-25T11:48:01;5.60;;;3.03;;
13927;SDS011;7036;50.834;4.718;2023-04-25T11:50:28;7.63;;;3.80;;
13927;SDS011;7036;50.834;4.718;2023-04-25T11:52:56;5.50;;;3.40;;
13927;SDS011;7036;50.834;4.718;2023-04-25T11:55:24;3.78;;;3.13;;
13927;SDS011;7036;50.834;4.718;2023-04-25T11:57:51;25.75;;;12.70;;
13927;SDS011;7036;50.834;4.718;2023-04-25T12:00:19;74.93;;;37.63;;
13927;SDS011;7036;50.834;4.718;2023-04-25T12:02:47;64.40;;;33.78;;
13927;SDS011;7036;50.834;4.718;2023-04-25T12:05:14;54.35;;;33.03;;
13927;SDS011;7036;50.834;4.718;2023-04-25T12:07:40;49.70;;;26.33;;
13927;SDS011;7036;50.834;4.718;2023-04-25T12:10:11;50.92;;;25.23;;
13927;SDS011;7036;50.834;4.718;2023-04-25T12:12:37;53.97;;;25.03;;
13927;SDS011;7036;50.834;4.718;2023-04-25T12:15:15;52.70;;;24.25;;
13927;SDS011;7036;50.834;4.718;2023-04-25T12:17:41;41.13;;;22.40;;
13927;SDS011;7036;50.834;4.718;2023-04-25T12:20:09;43.05;;;23.65;;
13927;SDS011;7036;50.834;4.718;2023-04-25T12:22:36;34.88;;;21.35;;
13927;SDS011;7036;50.834;4.718;2023-04-25T12:25:03;36.30;;;20.70;;
13927;SDS011;7036;50.834;4.718;2023-04-25T12:27:30;37.60;;;21.85;;
13927;SDS011;7036;50.834;4.718;2023-04-25T12:29:57;32.70;;;19.38;;
13927;SDS011;7036;50.834;4.718;2023-04-25T12:32:24;41.92;;;19.88;;
13927;SDS011;7036;50.834;4.718;2023-04-25T12:34:52;38.97;;;18.73;;
13927;SDS011;7036;50.834;4.718;2023-04-25T12:37:19;37.05;;;18.48;;
13927;SDS011;7036;50.834;4.718;2023-04-25T12:39:47;32.05;;;18.27;;
13927;SDS011;7036;50.834;4.718;2023-04-25T12:42:14;35.95;;;15.95;;
13927;SDS011;7036;50.834;4.718;2023-04-25T12:44:41;30.05;;;16.52;;
13927;SDS011;7036;50.834;4.718;2023-04-25T12:47:09;32.28;;;17.13;;
13927;SDS011;7036;50.834;4.718;2023-04-25T12:49:37;32.55;;;16.10;;
13927;SDS011;7036;50.834;4.718;2023-04-25T12:52:05;33.58;;;15.70;;
13927;SDS011;7036;50.834;4.718;2023-04-25T12:54:32;26.40;;;15.77;;
13927;SDS011;7036;50.834;4.718;2023-04-25T12:57:00;28.63;;;14.65;;
13927;SDS011;7036;50.834;4.718;2023-04-25T12:59:27;27.77;;;14.70;;
13927;SDS011;7036;50.834;4.718;2023-04-25T13:01:54;35.03;;;14.30;;
13927;SDS011;7036;50.834;4.718;2023-04-25T13:04:21;24.73;;;12.93;;
13927;SDS011;7036;50.834;4.718;2023-04-25T13:06:48;22.90;;;13.88;;
13927;SDS011;7036;50.834;4.718;2023-04-25T13:09:16;26.38;;;13.32;;
13927;SDS011;7036;50.834;4.718;2023-04-25T13:11:43;31.45;;;12.10;;
13927;SDS011;7036;50.834;4.718;2023-04-25T13:14:10;21.35;;;12.30;;
13927;SDS011;7036;50.834;4.718;2023-04-25T13:16:37;25.92;;;12.82;;
13927;SDS011;7036;50.834;4.718;2023-04-25T13:19:04;20.60;;;12.18;;
13927;SDS011;7036;50.834;4.718;2023-04-25T13:21:32;29.75;;;13.10;;
13927;SDS011;7036;50.834;4.718;2023-04-25T13:23:59;28.23;;;12.75;;
13927;SDS011;7036;50.834;4.718;2023-04-25T13:26:26;26.08;;;12.43;;
13927;SDS011;7036;50.834;4.718;2023-04-25T13:28:53;23.85;;;10.95;;
13927;SDS011;7036;50.834;4.718;2023-04-25T13:31:20;19.38;;;10.98;;
13927;SDS011;7036;50.834;4.718;2023-04-25T13:33:48;17.75;;;10.13;;
13927;SDS011;7036;50.834;4.718;2023-04-25T13:36:15;20.95;;;11.00;;
13927;SDS011;7036;50.834;4.718;2023-04-25T13:38:42;22.80;;;11.30;;
13927;SDS011;7036;50.834;4.718;2023-04-25T13:41:09;18.58;;;10.93;;
13927;SDS011;7036;50.834;4.718;2023-04-25T13:43:36;22.63;;;11.10;;
13927;SDS011;7036;50.834;4.718;2023-04-25T13:46:04;17.88;;;9.95;;
13927;SDS011;7036;50.834;4.718;2023-04-25T13:48:32;16.88;;;9.68;;
13927;SDS011;7036;50.834;4.718;2023-04-25T13:50:59;18.77;;;9.65;;
13927;SDS011;7036;50.834;4.718;2023-04-25T13:53:26;18.30;;;10.02;;
13927;SDS011;7036;50.834;4.718;2023-04-25T13:55:54;16.60;;;9.77;;
13927;SDS011;7036;50.834;4.718;2023-04-25T13:58:22;18.02;;;9.02;;
13927;SDS011;7036;50.834;4.718;2023-04-25T14:00:50;14.50;;;8.73;;
13927;SDS011;7036;50.834;4.718;2023-04-25T14:03:18;17.70;;;7.57;;
13927;SDS011;7036;50.834;4.718;2023-04-25T14:05:44;16.07;;;8.47;;
13927;SDS011;7036;50.834;4.718;2023-04-25T14:08:13;17.30;;;8.32;;
13927;SDS011;7036;50.834;4.718;2023-04-25T14:10:41;18.67;;;8.85;;
13927;SDS011;7036;50.834;4.718;2023-04-25T14:13:09;16.35;;;7.88;;
13927;SDS011;7036;50.834;4.718;2023-04-25T14:15:37;16.10;;;8.07;;
13927;SDS011;7036;50.834;4.718;2023-04-25T14:18:05;16.15;;;7.28;;
13927;SDS011;7036;50.834;4.718;2023-04-25T14:20:33;18.30;;;8.10;;
13927;SDS011;7036;50.834;4.718;2023-04-25T14:23:01;15.27;;;7.68;;
13927;SDS011;7036;50.834;4.718;2023-04-25T14:25:29;12.63;;;7.65;;
13927;SDS011;7036;50.834;4.718;2023-04-25T14:27:56;15.82;;;7.97;;
13927;SDS011;7036;50.834;4.718;2023-04-25T14:30:23;12.15;;;7.00;;
13927;SDS011;7036;50.834;4.718;2023-04-25T14:32:50;13.50;;;7.05;;
13927;SDS011;7036;50.834;4.718;2023-04-25T14:35:18;12.88;;;7.28;;
13927;SDS011;7036;50.834;4.718;2023-04-25T14:37:45;10.05;;;6.55;;
13927;SDS011;7036;50.834;4.718;2023-04-25T14:40:13;13.15;;;6.88;;
13927;SDS011;7036;50.834;4.718;2023-04-25T14:42:40;11.98;;;6.38;;
13927;SDS011;7036;50.834;4.718;2023-04-25T14:45:08;13.15;;;6.43;;
13927;SDS011;7036;50.834;4.718;2023-04-25T14:47:36;14.05;;;6.85;;
13927;SDS011;7036;50.834;4.718;2023-04-25T14:50:03;13.55;;;6.43;;
13927;SDS011;7036;50.834;4.718;2023-04-25T14:52:31;12.55;;;6.28;;
13927;SDS011;7036;50.834;4.718;2023-04-25T14:54:58;12.25;;;6.15;;
13927;SDS011;7036;50.834;4.718;2023-04-25T14:57:26;13.93;;;6.65;;
13927;SDS011;7036;50.834;4.718;2023-04-25T14:59:53;10.43;;;5.35;;
13927;SDS011;7036;50.834;4.718;2023-04-25T15:02:21;13.73;;;6.32;;